Time;durP1;ratioP1;P1;durP2;ratioP2;P2;SDS_P1;SDS_P2;PMS_P1;PMS_P2;Temp;Humidity;BMP_temperature;BMP_pressure;BME280_temperature;BME280_humidity;BME280_pressure;Samples;Min_cycle;Max_cycle;Signal;HPM_P1;HPM_P2
2023/04/08 00:01:41;;;;;;;68.50;33.80;;;;;;;1.51;100.00;101450.20;109525;1251;61224;-66
2023/04/08 00:04:09;;;;;;;61.30;33.00;;;;;;;1.46;100.00;101450.48;109632;1248;74218;-67
2023/04/08 00:06:39;;;;;;;83.60;42.40;;;;;;;1.33;100.00;101449.23;109637;1248;71658;-68
2023/04/08 00:09:07;;;;;;;82.10;44.10;;;;;;;1.16;100.00;101442.91;109622;1246;70456;-67
2023/04/08 00:11:36;;;;;;;84.30;43.20;;;;;;;1.11;100.00;101452.11;109597;1248;71580;-67
2023/04/08 00:14:05;;;;;;;65.70;35.00;;;;;;;1.07;100.00;101451.49;109596;1248;58177;-68
2023/04/08 00:16:34;;;;;;;64.10;35.10;;;;;;;1.01;100.00;101449.40;109475;1247;59973;-66
2023/04/08 00:19:05;;;;;;;72.10;36.00;;;;;;;0.94;100.00;101451.43;109642;1247;72436;-67
2023/04/08 00:21:34;;;;;;;65.40;34.80;;;;;;;0.89;100.00;101448.78;109633;1247;71421;-66
2023/04/08 00:24:03;;;;;;;65.80;35.60;;;;;;;0.86;100.00;101451.43;109510;1247;70828;-67
2023/04/08 00:26:32;;;;;;;69.20;38.50;;;;;;;0.82;100.00;101453.05;109464;1247;73848;-66
2023/04/08 00:29:00;;;;;;;75.40;39.30;;;;;;;0.74;100.00;101455.60;109307;1251;62606;-66
2023/04/08 00:31:29;;;;;;;61.60;31.60;;;;;;;0.69;100.00;101456.23;109356;1251;59199;-66
2023/04/08 00:33:59;;;;;;;72.10;41.10;;;;;;;0.59;100.00;101457.11;109493;1248;71536;-66
2023/04/08 00:36:28;;;;;;;75.90;42.00;;;;;;;0.48;100.00;101456.95;109584;1247;72238;-68
2023/04/08 00:38:57;;;;;;;76.30;42.40;;;;;;;0.46;100.00;101463.18;109639;1248;67693;-67
2023/04/08 00:41:26;;;;;;;73.10;40.00;;;;;;;0.36;100.00;101461.98;109481;1247;73066;-67
2023/04/08 00:43:54;;;;;;;77.90;40.60;;;;;;;0.29;100.00;101463.98;109486;1251;61644;-66
2023/04/08 00:46:23;;;;;;;75.20;38.80;;;;;;;0.21;100.00;101467.04;109487;1247;58701;-67
2023/04/08 00:48:53;;;;;;;75.70;40.80;;;;;;;0.22;100.00;101468.41;109360;1247;71646;-66
2023/04/08 00:51:22;;;;;;;81.30;43.70;;;;;;;0.13;100.00;101462.90;109328;1248;69591;-68
2023/04/08 00:53:51;;;;;;;82.50;42.20;;;;;;;0.09;100.00;101468.63;109618;1247;67843;-68
2023/04/08 00:56:21;;;;;;;85.40;46.20;;;;;;;0.04;100.00;101466.31;109497;1247;73064;-68
2023/04/08 00:58:53;;;;;;;62.30;35.10;;;;;;;0.01;100.00;101467.23;109245;1251;60975;-68
2023/04/08 01:01:56;;;;;;;90.90;45.00;;;;;;;-0.03;100.00;101466.26;109245;1247;58815;-68
2023/04/08 01:04:54;;;;;;;88.70;47.00;;;;;;;-0.13;100.00;101466.42;109343;1247;72812;-68
2023/04/08 01:07:31;;;;;;;84.90;43.70;;;;;;;-0.24;100.00;101470.70;109459;1247;69551;-68
2023/04/08 01:10:11;;;;;;;67.40;37.60;;;;;;;-0.20;100.00;101474.59;109291;1247;67865;-68
2023/04/08 01:12:49;;;;;;;54.50;33.20;;;;;;;-0.28;100.00;101474.02;109361;1248;72345;-68
2023/04/08 01:15:18;;;;;;;42.10;25.30;;;;;;;-0.34;100.00;101471.36;109342;1251;62571;-68
2023/04/08 01:17:52;;;;;;;53.60;32.20;;;;;;;-0.32;100.00;101471.86;109474;1247;61100;-68
2023/04/08 01:20:22;;;;;;;79.50;41.10;;;;;;;-0.38;100.00;101469.71;109143;1247;74038;-68
2023/04/08 01:23:02;;;;;;;106.50;48.20;;;;;;;-0.44;100.00;101473.23;109162;1247;71681;-68
2023/04/08 01:25:37;;;;;;;69.20;38.90;;;;;;;-0.42;100.00;101472.00;109432;1247;68657;-68
2023/04/08 01:28:18;;;;;;;56.60;33.70;;;;;;;-0.37;100.00;101473.48;109272;1247;72864;-68
2023/04/08 01:30:48;;;;;;;54.20;32.10;;;;;;;-0.41;100.00;101476.26;109168;1247;62790;-69
2023/04/08 01:33:20;;;;;;;71.80;36.30;;;;;;;-0.43;100.00;101478.69;109150;1246;59450;-70
2023/04/08 01:35:50;;;;;;;60.50;35.40;;;;;;;-0.49;100.00;101479.48;109294;1248;73621;-69
2023/04/08 01:38:22;;;;;;;105.80;47.00;;;;;;;-0.58;100.00;101477.20;109296;1247;70602;-69
2023/04/08 01:40:53;;;;;;;49.50;29.70;;;;;;;-0.55;100.00;101481.25;109271;1248;70437;-70
2023/04/08 01:43:24;;;;;;;58.90;35.00;;;;;;;-0.54;100.00;101481.41;109142;1252;73558;-70
2023/04/08 01:45:56;;;;;;;58.90;33.00;;;;;;;-0.61;100.00;101482.04;109062;1251;62332;-69
2023/04/08 01:48:27;;;;;;;54.40;33.80;;;;;;;-0.64;100.00;101489.09;109174;1247;61753;-69
2023/04/08 01:50:59;;;;;;;78.30;37.90;;;;;;;-0.70;100.00;101487.63;109179;1246;74144;-68
2023/04/08 01:53:28;;;;;;;83.70;42.80;;;;;;;-0.73;100.00;101486.30;109063;1247;72508;-66
2023/04/08 01:56:05;;;;;;;78.90;40.70;;;;;;;-0.80;100.00;101487.59;109335;1247;69625;-66
2023/04/08 01:58:41;;;;;;;71.00;38.00;;;;;;;-0.77;100.00;101485.16;109306;1248;73018;-66
2023/04/08 02:01:16;;;;;;;73.80;39.30;;;;;;;-0.83;100.00;101485.40;109168;1250;60420;-69
2023/04/08 02:03:46;;;;;;;66.60;36.80;;;;;;;-0.75;100.00;101488.90;109329;1246;60419;-69
2023/04/08 02:06:15;;;;;;;64.20;38.10;;;;;;;-0.70;100.00;101484.89;109090;1247;72535;-69
2023/04/08 02:08:44;;;;;;;49.80;28.60;;;;;;;-0.73;100.00;101484.25;109430;1247;69553;-69
2023/04/08 02:11:13;;;;;;;49.70;29.00;;;;;;;-0.77;100.00;101482.42;109307;1247;70462;-69
2023/04/08 02:13:42;;;;;;;46.60;28.20;;;;;;;-0.81;100.00;101479.55;109311;1247;71870;-68
2023/04/08 02:16:37;;;;;;;63.50;36.10;;;;;;;-0.84;100.00;101481.98;109439;1248;58545;-68
2023/04/08 02:19:37;;;;;;;53.60;33.80;;;;;;;-0.88;100.00;101485.98;109440;1247;62097;-68
2023/04/08 02:22:17;;;;;;;35.90;21.90;;;;;;;-0.88;100.00;101488.55;109444;1247;74616;-67
2023/04/08 02:24:47;;;;;;;59.70;32.10;;;;;;;-0.91;100.00;101493.70;109250;1247;69529;-68
2023/04/08 02:27:18;;;;;;;62.80;36.20;;;;;;;-0.96;100.00;101497.71;109354;1247;69672;-68
2023/04/08 02:29:48;;;;;;;81.80;42.40;;;;;;;-0.98;100.00;101495.34;109447;1247;72757;-68
2023/04/08 02:32:18;;;;;;;63.80;34.90;;;;;;;-1.01;100.00;101496.92;109318;1247;60357;-69
2023/04/08 02:34:48;;;;;;;96.90;51.10;;;;;;;-0.97;100.00;101498.74;109274;1247;61242;-67
2023/04/08 02:37:16;;;;;;;82.70;44.90;;;;;;;-0.90;100.00;101498.66;109479;1248;74181;-67
2023/04/08 02:39:45;;;;;;;79.70;41.20;;;;;;;-0.83;100.00;101498.05;109678;1247;69795;-67
2023/04/08 02:42:14;;;;;;;78.90;41.80;;;;;;;-0.71;100.00;101498.25;109543;1248;68569;-68
2023/04/08 02:44:43;;;;;;;74.80;39.70;;;;;;;-0.69;100.00;101496.17;109410;1248;71220;-67
2023/04/08 02:47:12;;;;;;;94.90;46.20;;;;;;;-0.72;100.00;101497.58;109518;1251;61121;-68
2023/04/08 02:49:40;;;;;;;66.60;36.30;;;;;;;-0.67;100.00;101497.67;109594;1246;60576;-68
2023/04/08 02:52:09;;;;;;;56.10;32.80;;;;;;;-0.59;100.00;101501.69;109571;1248;73322;-68
2023/04/08 02:54:38;;;;;;;56.30;31.10;;;;;;;-0.57;100.00;101500.96;109529;1248;69802;-68
2023/04/08 02:57:07;;;;;;;52.50;30.50;;;;;;;-0.59;100.00;101504.58;109502;1248;69900;-68
2023/04/08 02:59:36;;;;;;;52.60;29.60;;;;;;;-0.59;100.00;101502.02;109409;1247;72631;-69
2023/04/08 03:02:05;;;;;;;55.60;31.90;;;;;;;-0.62;100.00;101501.55;109500;1249;60450;-70
2023/04/08 03:04:34;;;;;;;69.50;39.80;;;;;;;-0.67;100.00;101499.91;109491;1248;59648;-69
2023/04/08 03:07:02;;;;;;;79.50;42.50;;;;;;;-0.72;100.00;101501.85;109526;1248;74368;-67
2023/04/08 03:09:32;;;;;;;78.40;42.40;;;;;;;-0.61;100.00;101499.83;109610;1246;72314;-68
2023/04/08 03:12:01;;;;;;;81.80;43.00;;;;;;;-0.56;100.00;101503.70;109564;1248;67616;-67
2023/04/08 03:14:30;;;;;;;82.70;41.20;;;;;;;-0.59;100.00;101505.95;109585;1248;74484;-68
2023/04/08 03:16:59;;;;;;;84.80;45.80;;;;;;;-0.50;100.00;101506.19;109566;1248;62563;-68
2023/04/08 03:19:28;;;;;;;80.90;44.20;;;;;;;-0.44;100.00;101505.59;109573;1248;59937;-68
2023/04/08 03:21:57;;;;;;;89.00;48.60;;;;;;;-0.36;100.00;101506.14;109573;1247;74386;-67
2023/04/08 03:24:25;;;;;;;89.20;48.60;;;;;;;-0.34;100.00;101507.98;109571;1247;72528;-68
2023/04/08 03:26:54;;;;;;;79.40;45.70;;;;;;;-0.31;100.00;101509.15;109579;1247;68831;-68
2023/04/08 03:29:23;;;;;;;76.90;39.60;;;;;;;-0.19;100.00;101510.85;109567;1248;71865;-68
2023/04/08 03:31:52;;;;;;;74.30;40.20;;;;;;;-0.13;100.00;101510.77;109600;1248;60943;-68
2023/04/08 03:34:21;;;;;;;77.10;42.10;;;;;;;-0.21;100.00;101514.49;109616;1248;60307;-66
2023/04/08 03:36:50;;;;;;;75.10;41.70;;;;;;;-0.14;100.00;101514.89;109605;1246;73434;-65
2023/04/08 03:39:19;;;;;;;75.30;39.70;;;;;;;-0.12;100.00;101520.51;109580;1246;71091;-66
2023/04/08 03:41:47;;;;;;;72.40;42.30;;;;;;;-0.14;100.00;101518.83;109657;1247;68276;-68
2023/04/08 03:44:16;;;;;;;71.20;41.20;;;;;;;-0.17;100.00;101515.97;109442;1246;71885;-67
2023/04/08 03:46:45;;;;;;;73.60;40.70;;;;;;;-0.07;100.00;101521.82;109694;1249;62134;-68
2023/04/08 03:49:13;;;;;;;67.60;39.20;;;;;;;-0.14;100.00;101521.92;109620;1248;60789;-67
2023/04/08 03:51:42;;;;;;;65.10;38.50;;;;;;;-0.22;100.00;101524.09;109721;1248;73071;-68
2023/04/08 03:54:11;;;;;;;67.60;39.60;;;;;;;-0.12;100.00;101529.92;109724;1247;72180;-67
2023/04/08 03:56:39;;;;;;;70.00;38.60;;;;;;;-0.08;100.00;101530.90;109716;1247;70770;-68
2023/04/08 03:59:08;;;;;;;69.20;38.50;;;;;;;0.11;100.00;101532.81;109605;1248;71515;-68
2023/04/08 04:01:37;;;;;;;72.70;41.90;;;;;;;0.13;100.00;101531.27;109513;1251;60719;-69
2023/04/08 04:04:08;;;;;;;71.50;38.20;;;;;;;-0.01;100.00;101529.25;109706;1247;61208;-68
2023/04/08 04:06:37;;;;;;;73.40;40.10;;;;;;;0.11;100.00;101526.83;109662;1246;74333;-69
2023/04/08 04:09:06;;;;;;;69.30;39.50;;;;;;;0.14;100.00;101531.40;109615;1247;70285;-66
2023/04/08 04:11:35;;;;;;;74.60;40.70;;;;;;;0.16;100.00;101526.91;109685;1248;68607;-66
2023/04/08 04:14:04;;;;;;;66.60;38.40;;;;;;;0.21;100.00;101525.80;109536;1248;72757;-67
2023/04/08 04:16:32;;;;;;;64.20;38.60;;;;;;;0.17;100.00;101527.26;109526;1251;61293;-67
2023/04/08 04:19:01;;;;;;;64.80;38.00;;;;;;;0.27;100.00;101527.61;109686;1245;59293;-67
2023/04/08 04:21:30;;;;;;;60.80;31.70;;;;;;;0.45;100.00;101528.83;109541;1248;72675;-69
2023/04/08 04:23:58;;;;;;;59.10;32.60;;;;;;;0.48;100.00;101531.52;109532;1248;71819;-69
2023/04/08 04:26:27;;;;;;;64.20;34.00;;;;;;;0.39;100.00;101532.19;109677;1248;68482;-68
2023/04/08 04:28:56;;;;;;;60.80;36.10;;;;;;;0.34;100.00;101539.46;109636;1248;72228;-68
2023/04/08 04:31:28;;;;;;;58.30;32.60;;;;;;;0.31;100.00;101537.30;109488;1248;62216;-68
2023/04/08 04:33:57;;;;;;;60.10;32.90;;;;;;;0.33;100.00;101539.83;109563;1246;60507;-68
2023/04/08 04:36:26;;;;;;;54.30;31.20;;;;;;;0.33;100.00;101543.77;109490;1247;74188;-69
2023/04/08 04:38:55;;;;;;;57.90;31.90;;;;;;;0.30;100.00;101544.01;109508;1247;72838;-68
2023/04/08 04:41:24;;;;;;;56.30;33.80;;;;;;;0.25;100.00;101546.81;109668;1249;67700;-68
2023/04/08 04:43:53;;;;;;;70.40;39.30;;;;;;;0.22;100.00;101551.67;109701;1247;73890;-68
2023/04/08 04:46:21;;;;;;;60.80;34.00;;;;;;;0.25;100.00;101555.23;109704;1248;62509;-67
2023/04/08 04:48:50;;;;;;;61.50;35.30;;;;;;;0.33;100.00;101553.55;109700;1245;59586;-68
2023/04/08 04:51:19;;;;;;;65.20;36.80;;;;;;;0.38;100.00;101553.11;109316;1248;74112;-67
2023/04/08 04:53:48;;;;;;;57.60;32.20;;;;;;;0.46;100.00;101560.68;109522;1245;69766;-68
2023/04/08 04:56:18;;;;;;;59.40;35.70;;;;;;;0.58;100.00;101561.52;109558;1245;66839;-68
2023/04/08 04:58:47;;;;;;;61.60;36.90;;;;;;;0.59;100.00;101563.55;109068;1247;71432;-66
2023/04/08 05:01:16;;;;;;;65.60;36.10;;;;;;;0.52;100.00;101564.36;109552;1248;59668;-67
2023/04/08 05:03:45;;;;;;;70.50;39.40;;;;;;;0.57;100.00;101566.84;109587;1247;60532;-65
2023/04/08 05:06:14;;;;;;;67.30;36.50;;;;;;;0.68;100.00;101571.80;109600;1248;74923;-66
2023/04/08 05:08:43;;;;;;;61.00;36.30;;;;;;;0.75;100.00;101574.08;109566;1248;72802;-67
2023/04/08 05:11:12;;;;;;;57.40;34.20;;;;;;;0.86;100.00;101577.48;109566;1249;71253;-75
2023/04/08 05:13:41;;;;;;;59.60;32.80;;;;;;;0.89;100.00;101577.77;109444;1248;74926;-70
2023/04/08 05:16:10;;;;;;;58.20;34.20;;;;;;;0.89;100.00;101582.92;109584;1249;62464;-69
2023/04/08 05:18:38;;;;;;;67.80;38.50;;;;;;;0.88;100.00;101583.45;109316;1248;61575;-72
2023/04/08 05:21:07;;;;;;;56.30;33.10;;;;;;;0.90;100.00;101587.36;109375;1246;72254;-76
2023/04/08 05:23:36;;;;;;;56.30;33.80;;;;;;;0.94;100.00;101585.71;109447;1248;70383;-70
2023/04/08 05:26:08;;;;;;;61.80;35.70;;;;;;;0.90;100.00;101588.91;109232;1251;67971;-70
2023/04/08 05:28:37;;;;;;;64.30;37.20;;;;;;;0.86;100.00;101589.83;109362;1249;71924;-70
2023/04/08 05:31:06;;;;;;;64.80;39.40;;;;;;;0.91;100.00;101585.12;109564;1247;60454;-70
2023/04/08 05:33:35;;;;;;;72.10;43.50;;;;;;;0.99;100.00;101588.38;109653;1247;61122;-70
2023/04/08 05:36:04;;;;;;;66.70;39.20;;;;;;;1.24;100.00;101588.56;109650;1248;74122;-71
2023/04/08 05:38:33;;;;;;;59.60;35.20;;;;;;;1.35;100.00;101574.30;109658;1246;72881;-70
2023/04/08 05:41:02;;;;;;;72.40;43.20;;;;;;;1.53;100.00;101585.41;109664;1248;68848;-70
2023/04/08 05:43:35;;;;;;;66.00;39.90;;;;;;;1.62;100.00;101587.30;109495;1251;71194;-69
2023/04/08 05:46:08;;;;;;;66.50;40.10;;;;;;;1.72;100.00;101586.21;109402;1246;61339;-70
2023/04/08 05:48:37;;;;;;;65.60;40.70;;;;;;;1.73;100.00;101584.99;109520;1251;59965;-69
2023/04/08 05:51:12;;;;;;;59.90;39.80;;;;;;;1.74;100.00;101587.89;109640;1247;73501;-71
2023/04/08 05:53:41;;;;;;;64.20;40.00;;;;;;;1.92;100.00;101584.91;109417;1251;70042;-71
2023/04/08 05:56:10;;;;;;;55.10;35.40;;;;;;;2.31;100.00;101591.23;109531;1251;68699;-71
2023/04/08 05:58:38;;;;;;;63.30;38.20;;;;;;;2.48;100.00;101594.77;109381;1248;339080;-71
2023/04/08 06:01:07;;;;;;;61.40;37.20;;;;;;;2.48;100.00;101597.52;109533;1252;60823;-72
2023/04/08 06:03:36;;;;;;;61.20;39.00;;;;;;;2.53;100.00;101601.17;109633;1248;59575;-71
2023/04/08 06:06:11;;;;;;;57.30;36.80;;;;;;;2.58;100.00;101597.96;109619;1249;72403;-71
2023/04/08 06:08:40;;;;;;;54.70;33.80;;;;;;;2.60;100.00;101601.34;109400;1248;72708;-71
2023/04/08 06:11:08;;;;;;;53.60;32.50;;;;;;;2.63;100.00;101603.84;109435;1248;69620;-70
2023/04/08 06:13:37;;;;;;;53.10;34.00;;;;;;;2.64;100.00;101606.59;109515;1248;72307;-71
2023/04/08 06:16:15;;;;;;;48.40;29.80;;;;;;;2.56;100.00;101610.38;109518;1248;60536;-74
2023/04/08 06:18:48;;;;;;;46.80;30.30;;;;;;;2.56;100.00;101611.42;109367;1247;59373;-70
2023/04/08 06:21:18;;;;;;;50.10;31.30;;;;;;;2.43;100.00;101612.78;109505;1253;73575;-71
2023/04/08 06:23:46;;;;;;;50.10;29.60;;;;;;;2.37;100.00;101616.52;109661;1247;72082;-71
2023/04/08 06:26:15;;;;;;;52.80;33.60;;;;;;;2.29;100.00;101622.56;109539;1252;69087;-71
2023/04/08 06:28:44;;;;;;;59.30;36.90;;;;;;;2.24;100.00;101622.84;109682;1247;71353;-70
2023/04/08 06:31:13;;;;;;;40.70;25.40;;;;;;;2.20;100.00;101627.41;109674;1246;60224;-71
2023/04/08 06:33:42;;;;;;;50.40;29.20;;;;;;;2.18;100.00;101633.98;109661;1246;61235;-70
2023/04/08 06:36:12;;;;;;;58.10;34.60;;;;;;;2.06;100.00;101634.94;109651;1247;74034;-69
2023/04/08 06:38:40;;;;;;;52.20;31.40;;;;;;;1.99;100.00;101636.81;109407;1246;72566;-68
2023/04/08 06:41:09;;;;;;;53.40;32.60;;;;;;;2.04;100.00;101635.52;109404;1248;69664;-69
2023/04/08 06:43:38;;;;;;;59.20;36.20;;;;;;;2.08;100.00;101638.69;109433;1249;71125;-68
2023/04/08 06:46:07;;;;;;;60.90;35.90;;;;;;;2.20;100.00;101636.00;109459;1247;61458;-70
2023/04/08 06:48:36;;;;;;;54.90;33.00;;;;;;;2.31;100.00;101639.37;109365;1246;59343;-70
2023/04/08 06:51:06;;;;;;;54.90;33.20;;;;;;;2.30;100.00;101637.34;109341;1252;72903;-70
2023/04/08 06:53:35;;;;;;;61.90;39.00;;;;;;;2.47;100.00;101639.16;109519;1248;70243;-69
2023/04/08 06:56:04;;;;;;;52.70;31.60;;;;;;;2.60;100.00;101638.66;109507;1246;69225;-69
2023/04/08 06:58:33;;;;;;;49.30;31.90;;;;;;;2.80;100.00;101644.52;109507;1247;74452;-69
2023/04/08 07:01:02;;;;;;;58.00;34.40;;;;;;;2.90;100.00;101645.13;109654;1248;60818;-69
2023/04/08 07:03:31;;;;;;;53.20;30.90;;;;;;;3.04;100.00;101644.60;109622;1247;61208;-70
2023/04/08 07:06:00;;;;;;;56.70;33.60;;;;;;;3.22;100.00;101645.16;109177;1248;74412;-70
2023/04/08 07:08:28;;;;;;;54.70;33.10;;;;;;;3.41;100.00;101642.73;109445;1249;71708;-69
2023/04/08 07:10:57;;;;;;;50.30;32.20;;;;;;;3.65;100.00;101647.24;109490;1248;67767;-68
2023/04/08 07:13:26;;;;;;;51.10;33.00;;;;;;;3.83;100.00;101647.76;109500;1248;71041;-72
2023/04/08 07:15:55;;;;;;;50.20;30.90;;;;;;;3.89;99.70;101652.04;109308;1245;62852;-77
2023/04/08 07:18:25;;;;;;;46.90;30.20;;;;;;;3.91;99.15;101649.07;109500;1246;60258;-77
2023/04/08 07:20:53;;;;;;;48.20;31.00;;;;;;;3.92;98.90;101646.45;109476;1251;74803;-78
2023/04/08 07:23:22;;;;;;;57.40;34.90;;;;;;;3.84;99.98;101645.66;109494;1247;69821;-77
2023/04/08 07:25:52;;;;;;;39.70;27.00;;;;;;;4.22;99.40;101649.52;109356;1248;68998;-77
2023/04/08 07:28:21;;;;;;;49.50;32.70;;;;;;;4.38;96.48;101647.97;109548;1248;71917;-71
2023/04/08 07:30:50;;;;;;;43.10;29.80;;;;;;;4.38;97.83;101644.00;109589;1250;60489;-70
2023/04/08 07:33:19;;;;;;;44.90;30.60;;;;;;;4.55;96.66;101650.01;109592;1248;59642;-70
2023/04/08 07:35:48;;;;;;;49.00;32.60;;;;;;;4.65;96.03;101652.11;109523;1247;71672;-70
2023/04/08 07:38:17;;;;;;;53.40;37.10;;;;;;;4.75;96.17;101650.04;109576;1248;71572;-69
2023/04/08 07:40:45;;;;;;;52.40;35.10;;;;;;;4.94;96.11;101646.14;109674;1246;70051;-73
2023/04/08 07:43:14;;;;;;;55.30;37.40;;;;;;;5.08;95.85;101647.73;109577;1247;74140;-72
2023/04/08 07:45:43;;;;;;;50.00;34.60;;;;;;;5.36;94.78;101646.05;109677;1247;59766;-71
2023/04/08 07:48:12;;;;;;;54.90;36.50;;;;;;;5.52;93.65;101649.95;109708;1247;59625;-70
2023/04/08 07:50:41;;;;;;;49.80;33.90;;;;;;;5.66;93.53;101650.67;109571;1247;74273;-71
2023/04/08 07:53:30;;;;;;;47.60;33.90;;;;;;;5.87;90.02;101648.33;109669;1247;62045;-72
2023/04/08 07:56:00;;;;;;;53.60;36.60;;;;;;;5.91;89.34;101648.55;109461;1248;68633;-70
2023/04/08 07:58:30;;;;;;;48.70;33.70;;;;;;;5.89;90.07;101650.84;109427;1246;73348;-71
2023/04/08 08:01:00;;;;;;;48.60;33.50;;;;;;;6.02;90.20;101647.95;109593;1247;61326;-71
2023/04/08 08:03:29;;;;;;;54.20;37.30;;;;;;;6.24;88.49;101647.45;109662;1247;60363;-71
2023/04/08 08:06:01;;;;;;;48.80;32.70;;;;;;;6.33;87.41;101640.88;109622;1247;73727;-71
2023/04/08 08:08:32;;;;;;;48.20;34.10;;;;;;;6.40;86.12;101646.81;109627;1247;71805;-72
2023/04/08 08:11:01;;;;;;;50.50;35.30;;;;;;;6.41;86.27;101643.34;109542;1246;70080;-70
2023/04/08 08:13:30;;;;;;;47.20;31.90;;;;;;;6.40;86.04;101642.13;109585;1247;72897;-71
2023/04/08 08:15:59;;;;;;;50.80;32.80;;;;;;;6.38;85.74;101645.48;109472;1251;59014;-70
2023/04/08 08:18:28;;;;;;;47.00;28.80;;;;;;;6.33;85.32;101647.45;109519;1248;60210;-70
2023/04/08 08:20:56;;;;;;;34.90;22.40;;;;;;;6.01;85.78;101647.63;109394;1248;73783;-70
2023/04/08 08:23:26;;;;;;;47.60;27.00;;;;;;;5.67;87.07;101647.86;109626;1245;70554;-69
2023/04/08 08:26:08;;;;;;;51.80;30.30;;;;;;;5.50;88.23;101647.61;109631;1247;70414;-70
2023/04/08 08:28:38;;;;;;;46.30;29.00;;;;;;;5.43;89.49;101651.14;109484;1247;72838;-70
2023/04/08 08:31:07;;;;;;;57.10;37.00;;;;;;;5.53;89.77;101650.11;109472;1247;63137;-71
2023/04/08 08:33:36;;;;;;;47.80;29.60;;;;;;;5.59;89.82;101648.84;109635;1247;60078;-70
2023/04/08 08:36:05;;;;;;;46.40;27.20;;;;;;;5.73;88.66;101651.11;109616;1248;72919;-72
2023/04/08 08:38:34;;;;;;;46.40;27.90;;;;;;;5.67;88.82;101646.46;109481;1246;71318;-70
2023/04/08 08:41:03;;;;;;;39.40;25.10;;;;;;;5.61;89.24;101651.02;109618;1246;68441;-71
2023/04/08 08:43:32;;;;;;;41.80;24.30;;;;;;;5.62;89.21;101652.71;109346;1245;71194;-73
2023/04/08 08:46:02;;;;;;;51.30;31.80;;;;;;;5.60;89.21;101654.16;109634;1247;61209;-71
2023/04/08 08:48:32;;;;;;;61.70;38.30;;;;;;;5.62;89.14;101655.83;109526;1247;58891;-69
2023/04/08 08:51:01;;;;;;;64.80;40.70;;;;;;;5.67;89.74;101653.74;109589;1248;72938;-69
2023/04/08 08:56:19;;;;;;;58.50;37.10;;;;;;;6.00;89.30;101655.29;104205;1284;599779;-69
2023/04/08 08:58:48;;;;;;;51.50;33.80;;;;;;;6.12;89.00;101655.89;106751;1255;59029;-70
2023/04/08 09:01:39;;;;;;;55.60;36.30;;;;;;;6.28;88.53;101657.30;107035;1248;59284;-70
2023/04/08 09:04:21;;;;;;;58.30;40.10;;;;;;;6.48;87.56;101658.27;106993;1252;60617;-69
2023/04/08 09:07:09;;;;;;;56.90;38.50;;;;;;;6.60;87.12;101656.39;106950;1252;60877;-70
2023/04/08 09:09:50;;;;;;;61.70;41.40;;;;;;;6.77;86.92;101656.71;106574;1258;414507;-68
2023/04/08 09:12:19;;;;;;;56.90;38.90;;;;;;;7.01;86.21;101657.96;106855;1257;73798;-69
2023/04/08 09:14:49;;;;;;;63.40;42.50;;;;;;;7.20;84.70;101656.10;106629;1259;63382;-69
2023/04/08 09:17:37;;;;;;;55.00;38.20;;;;;;;7.23;85.31;101650.45;106664;1251;62990;-70
2023/04/08 09:20:12;;;;;;;59.90;40.00;;;;;;;7.43;84.82;101646.59;106909;1250;63118;-75
2023/04/08 09:22:59;;;;;;;56.90;37.70;;;;;;;7.75;83.20;101654.02;106867;1248;62015;-69
2023/04/08 09:25:33;;;;;;;55.40;37.80;;;;;;;7.91;80.90;101654.31;106886;1258;59171;-69
2023/04/08 09:28:02;;;;;;;56.80;39.10;;;;;;;7.89;81.38;101657.02;106797;1258;73816;-69
2023/04/08 09:30:31;;;;;;;53.70;35.50;;;;;;;8.01;80.94;101657.68;106884;1248;60904;-69
2023/04/08 09:33:05;;;;;;;52.70;37.90;;;;;;;7.97;79.07;101654.71;106703;1257;58279;-70
2023/04/08 09:35:35;;;;;;;52.30;35.10;;;;;;;7.75;79.59;101658.68;106846;1248;63810;-70
2023/04/08 09:38:04;;;;;;;53.20;36.10;;;;;;;7.59;79.68;101659.08;106929;1247;61189;-68
2023/04/08 09:40:35;;;;;;;55.70;36.90;;;;;;;7.26;81.13;101660.89;106949;1249;69892;-72
2023/04/08 09:43:07;;;;;;;56.00;37.90;;;;;;;7.13;82.35;101660.04;106835;1255;74272;-69
2023/04/08 09:45:40;;;;;;;60.20;38.90;;;;;;;7.09;82.78;101665.08;107019;1248;58050;-70
2023/04/08 09:48:22;;;;;;;57.10;37.30;;;;;;;7.14;83.04;101666.59;107046;1248;60237;-71
2023/04/08 09:50:56;;;;;;;45.10;30.20;;;;;;;7.16;82.81;101668.40;106879;1251;63008;-69
2023/04/08 09:53:40;;;;;;;53.10;35.30;;;;;;;7.19;82.98;101668.81;106973;1248;60705;-70
2023/04/08 09:56:13;;;;;;;55.10;36.80;;;;;;;7.24;82.79;101669.45;107067;1258;59291;-69
2023/04/08 09:58:53;;;;;;;62.10;41.50;;;;;;;7.28;83.26;101670.67;106835;1257;73845;-71
2023/04/08 10:01:49;;;;;;;62.90;41.70;;;;;;;7.43;82.97;101669.66;106958;1247;59101;-68
2023/04/08 10:04:40;;;;;;;60.80;42.10;;;;;;;7.72;83.54;101667.36;106729;1248;60429;-70
2023/04/08 10:07:09;;;;;;;64.00;45.30;;;;;;;8.08;83.97;101665.48;106752;1251;72431;-68
2023/04/08 10:09:41;;;;;;;63.40;42.80;;;;;;;8.47;83.72;101663.67;106988;1247;60837;-69
2023/04/08 10:12:11;;;;;;;60.00;44.70;;;;;;;8.99;80.43;101663.55;106888;1248;71146;-69
2023/04/08 10:14:39;;;;;;;64.60;46.50;;;;;;;9.13;81.37;101659.73;106963;1248;73507;-68
2023/04/08 10:17:35;;;;;;;58.80;42.40;;;;;;;9.36;80.99;101657.48;106827;1258;57962;-69
2023/04/08 10:20:34;;;;;;;60.80;43.90;;;;;;;9.66;80.50;101657.29;106839;1247;59122;-67
2023/04/08 10:23:04;;;;;;;63.30;45.60;;;;;;;9.72;76.63;101655.20;106720;1245;72663;-70
2023/04/08 10:25:44;;;;;;;60.80;44.30;;;;;;;9.80;76.05;101653.19;107095;1246;72588;-69
2023/04/08 10:28:16;;;;;;;63.30;45.30;;;;;;;9.98;75.40;101658.49;107018;1248;60345;-69
2023/04/08 10:30:50;;;;;;;56.10;41.00;;;;;;;10.03;75.32;101652.48;106962;1245;74831;-71
2023/04/08 10:33:29;;;;;;;56.70;41.10;;;;;;;10.98;72.59;101650.23;107024;1244;60444;-68
2023/04/08 10:36:09;;;;;;;49.10;37.00;;;;;;;11.09;70.20;101648.84;106881;1247;61271;-70
2023/04/08 10:38:41;;;;;;;53.10;39.90;;;;;;;11.05;68.52;101647.52;107004;1245;73102;-69
2023/04/08 10:41:12;;;;;;;56.40;41.20;;;;;;;10.93;68.87;101650.00;107028;1244;71937;-69
2023/04/08 10:43:46;;;;;;;58.70;43.40;;;;;;;10.87;69.24;101646.11;106995;1245;70844;-67
2023/04/08 10:46:16;;;;;;;55.50;40.90;;;;;;;10.77;69.38;101644.80;107065;1246;73388;-69
2023/04/08 10:48:59;;;;;;;52.00;38.00;;;;;;;10.72;69.46;101644.09;107062;1246;60773;-69
2023/04/08 10:51:33;;;;;;;;;;;;;;;10.64;68.56;101640.50;107164;1243;59083;-68
2023/04/08 10:54:16;;;;;;;58.10;40.20;;;;;;;10.51;69.53;101638.49;107149;1243;72238;-68
2023/04/08 10:56:48;;;;;;;58.30;43.40;;;;;;;10.51;70.03;101641.08;107192;1256;63860;-68
2023/04/08 10:59:29;;;;;;;58.00;41.50;;;;;;;10.51;70.36;101639.69;107173;1244;70461;-68
2023/04/08 11:01:59;;;;;;;61.80;44.50;;;;;;;10.54;70.29;101637.42;107214;1244;64005;-68
2023/04/08 11:04:29;;;;;;;63.30;46.10;;;;;;;10.60;72.39;101639.02;107272;1245;57656;-68
2023/04/08 11:06:58;;;;;;;59.80;42.80;;;;;;;11.06;74.67;101638.05;107217;1246;59034;-70
2023/04/08 11:09:27;;;;;;;60.40;46.90;;;;;;;11.57;70.95;101635.66;107213;1245;73572;-69
2023/04/08 11:11:56;;;;;;;64.30;48.70;;;;;;;11.53;68.43;101631.36;107074;1251;72259;-68
2023/04/08 11:14:25;;;;;;;55.60;40.00;;;;;;;11.83;69.76;101630.23;107165;1256;70149;-70
2023/04/08 11:16:54;;;;;;;57.00;42.50;;;;;;;12.49;58.53;101628.75;107166;1256;74377;-70
2023/04/08 11:19:24;;;;;;;54.70;40.30;;;;;;;12.11;57.77;101634.94;107254;1252;61118;-70
2023/04/08 11:21:53;;;;;;;57.30;43.30;;;;;;;12.02;57.45;101634.75;107330;1250;60887;-69
2023/04/08 11:24:22;;;;;;;62.30;44.30;;;;;;;11.82;58.15;101632.35;107333;1244;72928;-71